sensor_id;sensor_type;location;lat;lon;timestamp;P1;durP1;ratioP1;P2;durP2;ratioP2
24801;SDS011;12898;50.520;12.152;2023-09-12T00:01:35;21.45;;;14.55;;
24801;SDS011;12898;50.520;12.152;2023-09-12T00:04:00;18.42;;;13.48;;
24801;SDS011;12898;50.520;12.152;2023-09-12T00:06:26;23.52;;;14.63;;
24801;SDS011;12898;50.520;12.152;2023-09-12T00:08:52;17.75;;;12.88;;
24801;SDS011;12898;50.520;12.152;2023-09-12T00:11:18;20.83;;;13.55;;
24801;SDS011;12898;50.520;12.152;2023-09-12T00:13:43;21.58;;;14.18;;
24801;SDS011;12898;50.520;12.152;2023-09-12T00:16:10;17.42;;;13.43;;
24801;SDS011;12898;50.520;12.152;2023-09-12T00:18:36;20.40;;;13.05;;
24801;SDS011;12898;50.520;12.152;2023-09-12T00:21:03;17.63;;;12.93;;
24801;SDS011;12898;50.520;12.152;2023-09-12T00:23:29;18.13;;;12.48;;
24801;SDS011;12898;50.520;12.152;2023-09-12T00:25:56;20.20;;;13.50;;
24801;SDS011;12898;50.520;12.152;2023-09-12T00:28:22;19.92;;;14.85;;
24801;SDS011;12898;50.520;12.152;2023-09-12T00:30:48;18.75;;;13.52;;
24801;SDS011;12898;50.520;12.152;2023-09-12T00:33:13;18.70;;;12.98;;
24801;SDS011;12898;50.520;12.152;2023-09-12T00:35:39;19.58;;;12.52;;
24801;SDS011;12898;50.520;12.152;2023-09-12T00:38:05;17.35;;;12.55;;
24801;SDS011;12898;50.520;12.152;2023-09-12T00:40:33;18.67;;;13.43;;
24801;SDS011;12898;50.520;12.152;2023-09-12T00:42:59;19.02;;;13.45;;
24801;SDS011;12898;50.520;12.152;2023-09-12T00:45:25;17.35;;;12.65;;
24801;SDS011;12898;50.520;12.152;2023-09-12T00:47:51;19.48;;;14.57;;
24801;SDS011;12898;50.520;12.152;2023-09-12T00:50:18;20.30;;;15.25;;
24801;SDS011;12898;50.520;12.152;2023-09-12T00:52:47;18.95;;;15.52;;
24801;SDS011;12898;50.520;12.152;2023-09-12T00:55:13;19.33;;;15.25;;
24801;SDS011;12898;50.520;12.152;2023-09-12T00:57:39;25.02;;;15.55;;
24801;SDS011;12898;50.520;12.152;2023-09-12T01:00:06;21.70;;;15.73;;
24801;SDS011;12898;50.520;12.152;2023-09-12T01:02:39;20.67;;;15.57;;
24801;SDS011;12898;50.520;12.152;2023-09-12T01:05:08;22.33;;;14.88;;
24801;SDS011;12898;50.520;12.152;2023-09-12T01:07:35;19.13;;;15.55;;
24801;SDS011;12898;50.520;12.152;2023-09-12T01:10:03;20.13;;;15.18;;
24801;SDS011;12898;50.520;12.152;2023-09-12T01:12:30;19.38;;;14.75;;
24801;SDS011;12898;50.520;12.152;2023-09-12T01:14:55;19.70;;;14.25;;
24801;SDS011;12898;50.520;12.152;2023-09-12T01:17:22;20.33;;;14.05;;
24801;SDS011;12898;50.520;12.152;2023-09-12T01:19:48;19.85;;;14.07;;
24801;SDS011;12898;50.520;12.152;2023-09-12T01:27:43;19.42;;;13.93;;
24801;SDS011;12898;50.520;12.152;2023-09-12T01:30:12;18.33;;;13.68;;
24801;SDS011;12898;50.520;12.152;2023-09-12T01:32:42;19.92;;;13.93;;
24801;SDS011;12898;50.520;12.152;2023-09-12T01:35:08;18.80;;;13.93;;
24801;SDS011;12898;50.520;12.152;2023-09-12T01:37:34;20.30;;;14.98;;
24801;SDS011;12898;50.520;12.152;2023-09-12T01:40:00;21.42;;;15.10;;
24801;SDS011;12898;50.520;12.152;2023-09-12T01:42:30;20.27;;;14.48;;
24801;SDS011;12898;50.520;12.152;2023-09-12T01:45:01;19.98;;;14.50;;
24801;SDS011;12898;50.520;12.152;2023-09-12T01:47:28;18.17;;;13.93;;
24801;SDS011;12898;50.520;12.152;2023-09-12T01:49:55;21.02;;;15.00;;
24801;SDS011;12898;50.520;12.152;2023-09-12T01:52:23;20.23;;;14.68;;
24801;SDS011;12898;50.520;12.152;2023-09-12T01:54:51;21.20;;;16.20;;
24801;SDS011;12898;50.520;12.152;2023-09-12T01:57:18;21.73;;;15.85;;
24801;SDS011;12898;50.520;12.152;2023-09-12T01:59:47;24.77;;;17.38;;
24801;SDS011;12898;50.520;12.152;2023-09-12T02:02:17;28.50;;;19.17;;
24801;SDS011;12898;50.520;12.152;2023-09-12T02:04:47;26.17;;;18.55;;
24801;SDS011;12898;50.520;12.152;2023-09-12T02:07:32;23.27;;;17.63;;
24801;SDS011;12898;50.520;12.152;2023-09-12T02:10:02;23.10;;;17.42;;
24801;SDS011;12898;50.520;12.152;2023-09-12T02:12:29;25.30;;;18.08;;
24801;SDS011;12898;50.520;12.152;2023-09-12T02:14:56;24.15;;;19.08;;
24801;SDS011;12898;50.520;12.152;2023-09-12T02:17:22;23.63;;;17.75;;
24801;SDS011;12898;50.520;12.152;2023-09-12T02:19:48;26.13;;;19.20;;
24801;SDS011;12898;50.520;12.152;2023-09-12T02:22:14;26.65;;;19.85;;
24801;SDS011;12898;50.520;12.152;2023-09-12T02:24:40;21.60;;;16.90;;
24801;SDS011;12898;50.520;12.152;2023-09-12T02:27:05;22.25;;;16.30;;
24801;SDS011;12898;50.520;12.152;2023-09-12T02:29:31;20.95;;;15.85;;
24801;SDS011;12898;50.520;12.152;2023-09-12T02:31:57;20.17;;;14.90;;
24801;SDS011;12898;50.520;12.152;2023-09-12T02:34:23;20.98;;;14.98;;
24801;SDS011;12898;50.520;12.152;2023-09-12T02:36:49;19.80;;;14.90;;
24801;SDS011;12898;50.520;12.152;2023-09-12T02:39:15;20.45;;;15.68;;
24801;SDS011;12898;50.520;12.152;2023-09-12T02:41:41;22.20;;;15.25;;
24801;SDS011;12898;50.520;12.152;2023-09-12T02:44:06;21.02;;;15.68;;
24801;SDS011;12898;50.520;12.152;2023-09-12T02:46:32;20.13;;;15.00;;
24801;SDS011;12898;50.520;12.152;2023-09-12T02:48:58;22.08;;;15.90;;
24801;SDS011;12898;50.520;12.152;2023-09-12T02:51:27;21.13;;;16.00;;
24801;SDS011;12898;50.520;12.152;2023-09-12T02:53:53;25.48;;;17.10;;
24801;SDS011;12898;50.520;12.152;2023-09-12T02:56:19;22.98;;;16.67;;
24801;SDS011;12898;50.520;12.152;2023-09-12T02:58:48;23.42;;;16.60;;
24801;SDS011;12898;50.520;12.152;2023-09-12T03:01:18;24.90;;;17.95;;
24801;SDS011;12898;50.520;12.152;2023-09-12T03:03:48;24.08;;;17.95;;
24801;SDS011;12898;50.520;12.152;2023-09-12T03:06:15;22.13;;;15.63;;
24801;SDS011;12898;50.520;12.152;2023-09-12T03:08:41;23.20;;;16.63;;
24801;SDS011;12898;50.520;12.152;2023-09-12T03:11:08;23.88;;;15.30;;
24801;SDS011;12898;50.520;12.152;2023-09-12T03:13:35;20.90;;;15.93;;
24801;SDS011;12898;50.520;12.152;2023-09-12T03:16:02;21.00;;;15.95;;
24801;SDS011;12898;50.520;12.152;2023-09-12T03:18:28;21.67;;;15.95;;
24801;SDS011;12898;50.520;12.152;2023-09-12T03:20:54;21.90;;;15.15;;
24801;SDS011;12898;50.520;12.152;2023-09-12T03:23:20;22.88;;;16.95;;
24801;SDS011;12898;50.520;12.152;2023-09-12T03:25:45;23.77;;;16.95;;
24801;SDS011;12898;50.520;12.152;2023-09-12T03:28:11;21.63;;;16.58;;
24801;SDS011;12898;50.520;12.152;2023-09-12T03:30:37;20.65;;;16.27;;
24801;SDS011;12898;50.520;12.152;2023-09-12T03:33:04;22.98;;;16.92;;
24801;SDS011;12898;50.520;12.152;2023-09-12T03:35:31;25.13;;;17.73;;
24801;SDS011;12898;50.520;12.152;2023-09-12T03:37:57;25.95;;;17.85;;
24801;SDS011;12898;50.520;12.152;2023-09-12T03:40:23;23.48;;;16.98;;
24801;SDS011;12898;50.520;12.152;2023-09-12T03:42:48;23.35;;;17.67;;
24801;SDS011;12898;50.520;12.152;2023-09-12T03:45:14;25.92;;;19.52;;
24801;SDS011;12898;50.520;12.152;2023-09-12T03:47:40;25.67;;;19.67;;
24801;SDS011;12898;50.520;12.152;2023-09-12T03:50:05;28.25;;;20.67;;
24801;SDS011;12898;50.520;12.152;2023-09-12T03:52:31;27.58;;;19.25;;
24801;SDS011;12898;50.520;12.152;2023-09-12T03:54:57;28.08;;;20.05;;
24801;SDS011;12898;50.520;12.152;2023-09-12T03:57:22;24.77;;;19.80;;
24801;SDS011;12898;50.520;12.152;2023-09-12T03:59:48;28.83;;;22.27;;
24801;SDS011;12898;50.520;12.152;2023-09-12T04:02:14;25.25;;;20.08;;
24801;SDS011;12898;50.520;12.152;2023-09-12T04:04:39;27.17;;;20.48;;
24801;SDS011;12898;50.520;12.152;2023-09-12T04:07:05;27.30;;;20.80;;
24801;SDS011;12898;50.520;12.152;2023-09-12T04:09:31;24.80;;;20.45;;
24801;SDS011;12898;50.520;12.152;2023-09-12T04:11:56;27.20;;;19.95;;
24801;SDS011;12898;50.520;12.152;2023-09-12T04:14:22;27.45;;;20.33;;
24801;SDS011;12898;50.520;12.152;2023-09-12T04:16:48;25.40;;;19.67;;
24801;SDS011;12898;50.520;12.152;2023-09-12T04:19:13;26.33;;;19.25;;
24801;SDS011;12898;50.520;12.152;2023-09-12T04:21:39;23.88;;;19.30;;
24801;SDS011;12898;50.520;12.152;2023-09-12T04:24:05;24.63;;;19.63;;
24801;SDS011;12898;50.520;12.152;2023-09-12T04:26:31;25.75;;;19.98;;
24801;SDS011;12898;50.520;12.152;2023-09-12T04:28:57;24.73;;;18.80;;
24801;SDS011;12898;50.520;12.152;2023-09-12T04:31:23;27.20;;;19.73;;
24801;SDS011;12898;50.520;12.152;2023-09-12T04:33:50;24.77;;;18.98;;
24801;SDS011;12898;50.520;12.152;2023-09-12T04:36:19;26.50;;;19.60;;
24801;SDS011;12898;50.520;12.152;2023-09-12T04:38:44;27.38;;;21.10;;
24801;SDS011;12898;50.520;12.152;2023-09-12T04:41:11;29.65;;;22.50;;
24801;SDS011;12898;50.520;12.152;2023-09-12T04:43:40;29.42;;;23.70;;
24801;SDS011;12898;50.520;12.152;2023-09-12T04:46:06;30.35;;;22.83;;
24801;SDS011;12898;50.520;12.152;2023-09-12T04:48:32;26.42;;;20.58;;
24801;SDS011;12898;50.520;12.152;2023-09-12T04:50:57;26.65;;;20.50;;
24801;SDS011;12898;50.520;12.152;2023-09-12T04:53:23;27.08;;;19.42;;
24801;SDS011;12898;50.520;12.152;2023-09-12T04:55:51;31.73;;;23.08;;
24801;SDS011;12898;50.520;12.152;2023-09-12T04:58:18;30.15;;;23.73;;
24801;SDS011;12898;50.520;12.152;2023-09-12T05:00:43;30.35;;;23.65;;
24801;SDS011;12898;50.520;12.152;2023-09-12T05:03:10;31.52;;;23.17;;
24801;SDS011;12898;50.520;12.152;2023-09-12T05:05:35;28.85;;;21.92;;
24801;SDS011;12898;50.520;12.152;2023-09-12T05:08:01;29.20;;;22.25;;
24801;SDS011;12898;50.520;12.152;2023-09-12T05:10:27;30.30;;;22.23;;
24801;SDS011;12898;50.520;12.152;2023-09-12T05:12:52;30.10;;;23.40;;
24801;SDS011;12898;50.520;12.152;2023-09-12T05:15:18;34.03;;;26.38;;
24801;SDS011;12898;50.520;12.152;2023-09-12T05:17:44;28.58;;;23.33;;
24801;SDS011;12898;50.520;12.152;2023-09-12T05:20:09;28.02;;;22.85;;
24801;SDS011;12898;50.520;12.152;2023-09-12T05:22:35;28.08;;;23.52;;
24801;SDS011;12898;50.520;12.152;2023-09-12T05:25:01;31.05;;;24.80;;
24801;SDS011;12898;50.520;12.152;2023-09-12T05:27:26;32.20;;;25.35;;
24801;SDS011;12898;50.520;12.152;2023-09-12T05:29:52;35.03;;;25.05;;
24801;SDS011;12898;50.520;12.152;2023-09-12T05:32:17;32.83;;;25.45;;
24801;SDS011;12898;50.520;12.152;2023-09-12T05:34:43;35.92;;;28.45;;
24801;SDS011;12898;50.520;12.152;2023-09-12T05:37:10;35.25;;;27.98;;
24801;SDS011;12898;50.520;12.152;2023-09-12T05:39:35;33.97;;;26.08;;
24801;SDS011;12898;50.520;12.152;2023-09-12T05:42:01;31.02;;;24.80;;
24801;SDS011;12898;50.520;12.152;2023-09-12T05:44:27;31.90;;;24.83;;
24801;SDS011;12898;50.520;12.152;2023-09-12T05:46:52;31.55;;;24.50;;
24801;SDS011;12898;50.520;12.152;2023-09-12T05:49:18;30.50;;;24.00;;
24801;SDS011;12898;50.520;12.152;2023-09-12T05:51:44;32.63;;;25.75;;
24801;SDS011;12898;50.520;12.152;2023-09-12T05:54:10;27.88;;;23.77;;
24801;SDS011;12898;50.520;12.152;2023-09-12T05:56:38;30.83;;;22.92;;
24801;SDS011;12898;50.520;12.152;2023-09-12T05:59:04;27.42;;;23.77;;
24801;SDS011;12898;50.520;12.152;2023-09-12T06:01:30;24.85;;;20.90;;
24801;SDS011;12898;50.520;12.152;2023-09-12T06:03:56;24.95;;;18.83;;
24801;SDS011;12898;50.520;12.152;2023-09-12T06:06:21;23.45;;;18.15;;
24801;SDS011;12898;50.520;12.152;2023-09-12T06:08:47;23.83;;;19.60;;
24801;SDS011;12898;50.520;12.152;2023-09-12T06:11:13;25.35;;;19.60;;
24801;SDS011;12898;50.520;12.152;2023-09-12T06:13:39;23.67;;;17.63;;
24801;SDS011;12898;50.520;12.152;2023-09-12T06:16:05;24.65;;;18.90;;
24801;SDS011;12898;50.520;12.152;2023-09-12T06:18:31;22.23;;;16.90;;
24801;SDS011;12898;50.520;12.152;2023-09-12T06:20:58;23.85;;;18.45;;
24801;SDS011;12898;50.520;12.152;2023-09-12T06:23:24;22.75;;;17.83;;
24801;SDS011;12898;50.520;12.152;2023-09-12T06:25:49;22.55;;;16.67;;
24801;SDS011;12898;50.520;12.152;2023-09-12T06:28:24;22.58;;;17.38;;
24801;SDS011;12898;50.520;12.152;2023-09-12T06:30:52;19.30;;;15.82;;
24801;SDS011;12898;50.520;12.152;2023-09-12T06:33:17;20.17;;;16.05;;
24801;SDS011;12898;50.520;12.152;2023-09-12T06:35:43;19.15;;;15.50;;
24801;SDS011;12898;50.520;12.152;2023-09-12T06:38:13;25.45;;;15.63;;
24801;SDS011;12898;50.520;12.152;2023-09-12T06:40:38;21.85;;;15.38;;
24801;SDS011;12898;50.520;12.152;2023-09-12T06:43:04;18.90;;;14.80;;
24801;SDS011;12898;50.520;12.152;2023-09-12T06:45:30;19.55;;;14.90;;
24801;SDS011;12898;50.520;12.152;2023-09-12T06:47:58;25.05;;;14.52;;
24801;SDS011;12898;50.520;12.152;2023-09-12T06:50:23;25.15;;;15.25;;
24801;SDS011;12898;50.520;12.152;2023-09-12T06:52:49;22.02;;;13.45;;
24801;SDS011;12898;50.520;12.152;2023-09-12T06:55:15;20.77;;;12.65;;
24801;SDS011;12898;50.520;12.152;2023-09-12T06:57:40;17.33;;;12.98;;
24801;SDS011;12898;50.520;12.152;2023-09-12T07:00:07;20.50;;;14.30;;
24801;SDS011;12898;50.520;12.152;2023-09-12T07:02:33;19.42;;;13.07;;
24801;SDS011;12898;50.520;12.152;2023-09-12T07:04:59;20.88;;;13.50;;
24801;SDS011;12898;50.520;12.152;2023-09-12T07:07:25;16.65;;;12.40;;
24801;SDS011;12898;50.520;12.152;2023-09-12T07:09:51;16.45;;;12.95;;
24801;SDS011;12898;50.520;12.152;2023-09-12T07:12:16;19.48;;;11.38;;
24801;SDS011;12898;50.520;12.152;2023-09-12T07:14:42;16.95;;;11.57;;
24801;SDS011;12898;50.520;12.152;2023-09-12T07:17:08;18.25;;;12.18;;
24801;SDS011;12898;50.520;12.152;2023-09-12T07:19:33;18.30;;;12.52;;
24801;SDS011;12898;50.520;12.152;2023-09-12T07:21:59;17.13;;;12.05;;
24801;SDS011;12898;50.520;12.152;2023-09-12T07:24:25;17.15;;;11.95;;
24801;SDS011;12898;50.520;12.152;2023-09-12T07:26:51;16.85;;;11.85;;
24801;SDS011;12898;50.520;12.152;2023-09-12T07:29:17;14.68;;;10.73;;
24801;SDS011;12898;50.520;12.152;2023-09-12T07:31:43;16.35;;;11.75;;
24801;SDS011;12898;50.520;12.152;2023-09-12T07:34:09;19.67;;;11.88;;
24801;SDS011;12898;50.520;12.152;2023-09-12T07:36:36;18.77;;;12.10;;
24801;SDS011;12898;50.520;12.152;2023-09-12T07:39:03;15.50;;;11.15;;
24801;SDS011;12898;50.520;12.152;2023-09-12T07:41:29;15.90;;;11.18;;
24801;SDS011;12898;50.520;12.152;2023-09-12T07:43:55;16.95;;;11.15;;
24801;SDS011;12898;50.520;12.152;2023-09-12T07:46:21;18.65;;;12.30;;
24801;SDS011;12898;50.520;12.152;2023-09-12T07:48:47;15.50;;;10.80;;
24801;SDS011;12898;50.520;12.152;2023-09-12T07:51:13;16.60;;;11.02;;
24801;SDS011;12898;50.520;12.152;2023-09-12T07:53:40;15.65;;;10.63;;
24801;SDS011;12898;50.520;12.152;2023-09-12T07:56:08;15.95;;;10.98;;
24801;SDS011;12898;50.520;12.152;2023-09-12T07:58:35;16.85;;;12.10;;
24801;SDS011;12898;50.520;12.152;2023-09-12T08:01:04;15.52;;;10.65;;
24801;SDS011;12898;50.520;12.152;2023-09-12T08:03:32;16.17;;;11.20;;
24801;SDS011;12898;50.520;12.152;2023-09-12T08:05:59;21.85;;;11.95;;
24801;SDS011;12898;50.520;12.152;2023-09-12T08:08:25;19.58;;;10.48;;
24801;SDS011;12898;50.520;12.152;2023-09-12T08:10:51;16.38;;;10.82;;
24801;SDS011;12898;50.520;12.152;2023-09-12T08:13:16;16.15;;;10.50;;
24801;SDS011;12898;50.520;12.152;2023-09-12T08:15:42;15.95;;;11.07;;
24801;SDS011;12898;50.520;12.152;2023-09-12T08:18:08;16.00;;;11.23;;
24801;SDS011;12898;50.520;12.152;2023-09-12T08:20:33;18.60;;;11.95;;
24801;SDS011;12898;50.520;12.152;2023-09-12T08:22:59;18.67;;;11.35;;
24801;SDS011;12898;50.520;12.152;2023-09-12T08:25:25;15.82;;;10.50;;
24801;SDS011;12898;50.520;12.152;2023-09-12T08:27:52;17.10;;;11.30;;
24801;SDS011;12898;50.520;12.152;2023-09-12T08:30:17;13.95;;;10.20;;
24801;SDS011;12898;50.520;12.152;2023-09-12T08:32:43;18.85;;;10.35;;
24801;SDS011;12898;50.520;12.152;2023-09-12T08:35:09;16.30;;;10.65;;
24801;SDS011;12898;50.520;12.152;2023-09-12T08:37:39;17.45;;;10.88;;
24801;SDS011;12898;50.520;12.152;2023-09-12T08:40:06;15.57;;;10.75;;
24801;SDS011;12898;50.520;12.152;2023-09-12T08:42:38;16.38;;;10.40;;
24801;SDS011;12898;50.520;12.152;2023-09-12T08:45:08;15.55;;;9.68;;
24801;SDS011;12898;50.520;12.152;2023-09-12T08:47:40;17.42;;;10.57;;
24801;SDS011;12898;50.520;12.152;2023-09-12T08:50:12;13.88;;;9.73;;
24801;SDS011;12898;50.520;12.152;2023-09-12T08:52:44;15.90;;;10.55;;
24801;SDS011;12898;50.520;12.152;2023-09-12T08:55:11;16.30;;;9.35;;
24801;SDS011;12898;50.520;12.152;2023-09-12T08:57:41;14.40;;;9.82;;
24801;SDS011;12898;50.520;12.152;2023-09-12T09:00:07;14.50;;;8.50;;
24801;SDS011;12898;50.520;12.152;2023-09-12T09:02:38;18.23;;;10.18;;
24801;SDS011;12898;50.520;12.152;2023-09-12T09:05:08;13.95;;;9.63;;
24801;SDS011;12898;50.520;12.152;2023-09-12T09:07:39;14.48;;;9.10;;
24801;SDS011;12898;50.520;12.152;2023-09-12T09:10:09;16.13;;;9.38;;
24801;SDS011;12898;50.520;12.152;2023-09-12T09:12:43;15.52;;;8.73;;
24801;SDS011;12898;50.520;12.152;2023-09-12T09:15:26;12.18;;;8.60;;
24801;SDS011;12898;50.520;12.152;2023-09-12T09:17:54;13.10;;;9.00;;
24801;SDS011;12898;50.520;12.152;2023-09-12T09:20:26;14.95;;;9.10;;
24801;SDS011;12898;50.520;12.152;2023-09-12T09:25:30;15.10;;;9.23;;
24801;SDS011;12898;50.520;12.152;2023-09-12T09:27:57;20.40;;;9.10;;
24801;SDS011;12898;50.520;12.152;2023-09-12T09:30:38;11.35;;;8.65;;
24801;SDS011;12898;50.520;12.152;2023-09-12T09:33:06;11.63;;;8.32;;
24801;SDS011;12898;50.520;12.152;2023-09-12T09:35:32;14.18;;;8.52;;
24801;SDS011;12898;50.520;12.152;2023-09-12T09:37:58;15.88;;;9.38;;
24801;SDS011;12898;50.520;12.152;2023-09-12T09:40:24;14.68;;;8.25;;
24801;SDS011;12898;50.520;12.152;2023-09-12T09:42:53;12.35;;;8.43;;
24801;SDS011;12898;50.520;12.152;2023-09-12T09:45:21;12.85;;;8.90;;
24801;SDS011;12898;50.520;12.152;2023-09-12T09:47:49;14.68;;;8.95;;
24801;SDS011;12898;50.520;12.152;2023-09-12T09:50:15;13.60;;;9.10;;
24801;SDS011;12898;50.520;12.152;2023-09-12T09:52:44;13.52;;;8.52;;
24801;SDS011;12898;50.520;12.152;2023-09-12T09:55:13;13.77;;;8.23;;
24801;SDS011;12898;50.520;12.152;2023-09-12T09:57:40;16.95;;;8.60;;
24801;SDS011;12898;50.520;12.152;2023-09-12T10:00:06;11.45;;;8.10;;
24801;SDS011;12898;50.520;12.152;2023-09-12T10:02:36;10.45;;;8.30;;
24801;SDS011;12898;50.520;12.152;2023-09-12T10:05:04;14.35;;;7.97;;
24801;SDS011;12898;50.520;12.152;2023-09-12T10:07:32;12.63;;;7.97;;
24801;SDS011;12898;50.520;12.152;2023-09-12T10:09:58;15.63;;;7.97;;
24801;SDS011;12898;50.520;12.152;2023-09-12T10:12:28;11.82;;;7.40;;
24801;SDS011;12898;50.520;12.152;2023-09-12T10:14:59;13.38;;;7.55;;
24801;SDS011;12898;50.520;12.152;2023-09-12T10:17:26;11.98;;;8.30;;
24801;SDS011;12898;50.520;12.152;2023-09-12T10:20:07;10.85;;;7.75;;
24801;SDS011;12898;50.520;12.152;2023-09-12T10:22:42;13.50;;;6.97;;
24801;SDS011;12898;50.520;12.152;2023-09-12T10:25:17;12.05;;;7.53;;
24801;SDS011;12898;50.520;12.152;2023-09-12T10:27:43;13.05;;;7.70;;
24801;SDS011;12898;50.520;12.152;2023-09-12T10:30:08;12.10;;;7.05;;
24801;SDS011;12898;50.520;12.152;2023-09-12T10:32:35;11.65;;;7.22;;
24801;SDS011;12898;50.520;12.152;2023-09-12T10:35:02;12.15;;;6.90;;
24801;SDS011;12898;50.520;12.152;2023-09-12T10:37:29;13.02;;;7.78;;
24801;SDS011;12898;50.520;12.152;2023-09-12T10:39:57;10.25;;;6.75;;
24801;SDS011;12898;50.520;12.152;2023-09-12T10:42:26;11.50;;;6.85;;
24801;SDS011;12898;50.520;12.152;2023-09-12T10:44:53;10.65;;;6.60;;
24801;SDS011;12898;50.520;12.152;2023-09-12T10:47:20;10.40;;;7.30;;
24801;SDS011;12898;50.520;12.152;2023-09-12T10:49:46;10.10;;;6.72;;
24801;SDS011;12898;50.520;12.152;2023-09-12T10:55:09;11.07;;;6.35;;
24801;SDS011;12898;50.520;12.152;2023-09-12T10:58:00;10.38;;;6.70;;
24801;SDS011;12898;50.520;12.152;2023-09-12T11:00:31;10.68;;;6.78;;
24801;SDS011;12898;50.520;12.152;2023-09-12T11:02:58;11.32;;;6.28;;
24801;SDS011;12898;50.520;12.152;2023-09-12T11:07:57;9.38;;;6.60;;
24801;SDS011;12898;50.520;12.152;2023-09-12T11:10:25;10.13;;;6.32;;
24801;SDS011;12898;50.520;12.152;2023-09-12T11:12:52;14.27;;;6.20;;
24801;SDS011;12898;50.520;12.152;2023-09-12T11:15:22;10.48;;;6.40;;
24801;SDS011;12898;50.520;12.152;2023-09-12T11:18:02;9.38;;;6.47;;
24801;SDS011;12898;50.520;12.152;2023-09-12T11:23:34;9.77;;;6.57;;
24801;SDS011;12898;50.520;12.152;2023-09-12T11:26:04;10.05;;;5.97;;
24801;SDS011;12898;50.520;12.152;2023-09-12T11:28:31;10.30;;;5.82;;
24801;SDS011;12898;50.520;12.152;2023-09-12T11:30:57;12.00;;;6.50;;
24801;SDS011;12898;50.520;12.152;2023-09-12T11:33:24;11.07;;;6.20;;
24801;SDS011;12898;50.520;12.152;2023-09-12T11:35:52;12.50;;;7.07;;
24801;SDS011;12898;50.520;12.152;2023-09-12T11:38:29;12.57;;;6.18;;
24801;SDS011;12898;50.520;12.152;2023-09-12T11:40:56;9.48;;;5.80;;
24801;SDS011;12898;50.520;12.152;2023-09-12T11:43:24;9.60;;;6.15;;
24801;SDS011;12898;50.520;12.152;2023-09-12T11:45:52;10.35;;;6.55;;
24801;SDS011;12898;50.520;12.152;2023-09-12T11:48:20;10.60;;;5.72;;
24801;SDS011;12898;50.520;12.152;2023-09-12T11:50:50;12.40;;;6.88;;
24801;SDS011;12898;50.520;12.152;2023-09-12T11:53:19;11.93;;;7.13;;
24801;SDS011;12898;50.520;12.152;2023-09-12T11:55:48;9.65;;;6.32;;
24801;SDS011;12898;50.520;12.152;2023-09-12T11:58:19;10.52;;;5.82;;
24801;SDS011;12898;50.520;12.152;2023-09-12T12:00:51;10.32;;;6.25;;
24801;SDS011;12898;50.520;12.152;2023-09-12T12:03:22;9.25;;;5.65;;
24801;SDS011;12898;50.520;12.152;2023-09-12T12:05:50;11.32;;;5.95;;
24801;SDS011;12898;50.520;12.152;2023-09-12T12:08:16;16.08;;;5.88;;
24801;SDS011;12898;50.520;12.152;2023-09-12T12:10:43;11.85;;;6.07;;
24801;SDS011;12898;50.520;12.152;2023-09-12T12:13:18;14.77;;;6.53;;
24801;SDS011;12898;50.520;12.152;2023-09-12T12:15:45;10.93;;;6.25;;
24801;SDS011;12898;50.520;12.152;2023-09-12T12:18:11;12.30;;;5.68;;
24801;SDS011;12898;50.520;12.152;2023-09-12T12:20:37;11.85;;;6.10;;
24801;SDS011;12898;50.520;12.152;2023-09-12T12:23:03;14.10;;;5.95;;
24801;SDS011;12898;50.520;12.152;2023-09-12T12:25:32;11.45;;;6.05;;
24801;SDS011;12898;50.520;12.152;2023-09-12T12:27:59;10.55;;;6.05;;
24801;SDS011;12898;50.520;12.152;2023-09-12T12:30:26;12.50;;;6.10;;
24801;SDS011;12898;50.520;12.152;2023-09-12T12:32:55;10.18;;;5.85;;
24801;SDS011;12898;50.520;12.152;2023-09-12T12:35:22;11.05;;;5.72;;
24801;SDS011;12898;50.520;12.152;2023-09-12T12:37:53;10.50;;;5.40;;
24801;SDS011;12898;50.520;12.152;2023-09-12T12:40:21;11.48;;;5.90;;
24801;SDS011;12898;50.520;12.152;2023-09-12T12:42:47;9.50;;;5.10;;
24801;SDS011;12898;50.520;12.152;2023-09-12T12:45:13;13.75;;;5.88;;
24801;SDS011;12898;50.520;12.152;2023-09-12T12:47:41;12.07;;;5.80;;
24801;SDS011;12898;50.520;12.152;2023-09-12T12:50:10;10.70;;;5.75;;
24801;SDS011;12898;50.520;12.152;2023-09-12T12:52:38;13.55;;;6.03;;
24801;SDS011;12898;50.520;12.152;2023-09-12T12:55:05;12.25;;;5.95;;
24801;SDS011;12898;50.520;12.152;2023-09-12T12:57:35;8.70;;;5.40;;
24801;SDS011;12898;50.520;12.152;2023-09-12T13:00:09;12.20;;;5.70;;
24801;SDS011;12898;50.520;12.152;2023-09-12T13:02:41;14.80;;;6.10;;
24801;SDS011;12898;50.520;12.152;2023-09-12T13:05:21;12.77;;;6.05;;
24801;SDS011;12898;50.520;12.152;2023-09-12T13:07:52;13.55;;;8.98;;
24801;SDS011;12898;50.520;12.152;2023-09-12T13:10:19;10.10;;;5.88;;
24801;SDS011;12898;50.520;12.152;2023-09-12T13:12:46;12.77;;;5.97;;
24801;SDS011;12898;50.520;12.152;2023-09-12T13:15:13;10.38;;;5.88;;
24801;SDS011;12898;50.520;12.152;2023-09-12T13:17:43;14.55;;;6.03;;
24801;SDS011;12898;50.520;12.152;2023-09-12T13:20:09;9.20;;;5.72;;
24801;SDS011;12898;50.520;12.152;2023-09-12T13:22:35;9.25;;;6.18;;
24801;SDS011;12898;50.520;12.152;2023-09-12T13:25:02;17.92;;;7.93;;
24801;SDS011;12898;50.520;12.152;2023-09-12T13:27:28;12.70;;;5.55;;
24801;SDS011;12898;50.520;12.152;2023-09-12T13:29:54;12.23;;;5.60;;
24801;SDS011;12898;50.520;12.152;2023-09-12T13:32:20;13.52;;;5.60;;
24801;SDS011;12898;50.520;12.152;2023-09-12T13:34:45;11.48;;;5.80;;
24801;SDS011;12898;50.520;12.152;2023-09-12T13:37:11;9.82;;;5.05;;
24801;SDS011;12898;50.520;12.152;2023-09-12T13:39:37;10.07;;;5.40;;
24801;SDS011;12898;50.520;12.152;2023-09-12T13:42:02;11.82;;;5.88;;
24801;SDS011;12898;50.520;12.152;2023-09-12T13:44:33;12.00;;;5.63;;
24801;SDS011;12898;50.520;12.152;2023-09-12T13:46:59;13.35;;;5.75;;
24801;SDS011;12898;50.520;12.152;2023-09-12T13:49:24;9.73;;;5.35;;
24801;SDS011;12898;50.520;12.152;2023-09-12T13:51:50;13.02;;;5.53;;
24801;SDS011;12898;50.520;12.152;2023-09-12T13:54:16;10.77;;;5.50;;
24801;SDS011;12898;50.520;12.152;2023-09-12T13:56:41;11.00;;;5.38;;
24801;SDS011;12898;50.520;12.152;2023-09-12T13:59:07;13.70;;;5.80;;
24801;SDS011;12898;50.520;12.152;2023-09-12T14:01:33;13.25;;;5.30;;
24801;SDS011;12898;50.520;12.152;2023-09-12T14:03:59;13.57;;;5.65;;
24801;SDS011;12898;50.520;12.152;2023-09-12T14:06:25;12.23;;;5.90;;
24801;SDS011;12898;50.520;12.152;2023-09-12T14:08:51;16.98;;;5.88;;
24801;SDS011;12898;50.520;12.152;2023-09-12T14:11:17;12.90;;;5.53;;
24801;SDS011;12898;50.520;12.152;2023-09-12T14:13:43;20.23;;;5.90;;
24801;SDS011;12898;50.520;12.152;2023-09-12T14:16:09;12.43;;;5.70;;
24801;SDS011;12898;50.520;12.152;2023-09-12T14:18:34;14.88;;;6.10;;
24801;SDS011;12898;50.520;12.152;2023-09-12T14:21:00;9.07;;;5.90;;
24801;SDS011;12898;50.520;12.152;2023-09-12T14:23:26;10.98;;;5.68;;
24801;SDS011;12898;50.520;12.152;2023-09-12T14:25:52;11.52;;;5.43;;
24801;SDS011;12898;50.520;12.152;2023-09-12T14:28:17;12.80;;;5.97;;
24801;SDS011;12898;50.520;12.152;2023-09-12T14:30:43;11.98;;;5.93;;